Terminal Aerodrome Forecast
Issued by NWS Wilmington, OH

Current Version | Previous Version | Text Only | Print | Product List | Glossary Off
Versions: 1 2 3 4 5 6 7 8 9 10 11 12 13 14 15 16 17 18 19 20

347
FTUS41 KILN 200730 AAD
TAFILN
TAF AMD
KILN 200730Z 2008/2106 00000KT 1/4SM FG VV002
     FM201300 13004KT 2SM BR BKN008
     FM201500 14005KT P6SM SCT015
     FM201800 14007KT P6SM SCT200
     FM210200 13006KT P6SM BKN200=

USA.gov is the U.S. government's official web portal to all federal, state and local government web resources and services.